sensor_id;sensor_type;location;lat;lon;timestamp;P1;durP1;ratioP1;P2;durP2;ratioP2
37655;SDS011;23498;50.958;3.124;2022-10-16T00:01:06;3.55;;;1.33;;
37655;SDS011;23498;50.958;3.124;2022-10-16T00:03:33;4.00;;;1.40;;
37655;SDS011;23498;50.958;3.124;2022-10-16T00:05:59;4.97;;;1.50;;
37655;SDS011;23498;50.958;3.124;2022-10-16T00:08:26;3.83;;;1.70;;
37655;SDS011;23498;50.958;3.124;2022-10-16T00:10:52;3.63;;;1.40;;
37655;SDS011;23498;50.958;3.124;2022-10-16T00:13:18;3.55;;;1.50;;
37655;SDS011;23498;50.958;3.124;2022-10-16T00:15:45;2.30;;;1.25;;
37655;SDS011;23498;50.958;3.124;2022-10-16T00:18:11;2.53;;;1.17;;
37655;SDS011;23498;50.958;3.124;2022-10-16T00:20:39;2.83;;;1.48;;
37655;SDS011;23498;50.958;3.124;2022-10-16T00:23:05;2.67;;;1.67;;
37655;SDS011;23498;50.958;3.124;2022-10-16T00:25:31;4.53;;;1.30;;
37655;SDS011;23498;50.958;3.124;2022-10-16T00:27:58;2.60;;;1.30;;
37655;SDS011;23498;50.958;3.124;2022-10-16T00:30:24;3.22;;;1.17;;
37655;SDS011;23498;50.958;3.124;2022-10-16T00:32:52;4.25;;;1.52;;
37655;SDS011;23498;50.958;3.124;2022-10-16T00:35:18;3.90;;;1.38;;
37655;SDS011;23498;50.958;3.124;2022-10-16T00:37:44;2.35;;;1.27;;
37655;SDS011;23498;50.958;3.124;2022-10-16T00:40:10;2.92;;;1.40;;
37655;SDS011;23498;50.958;3.124;2022-10-16T00:42:36;3.08;;;1.40;;
37655;SDS011;23498;50.958;3.124;2022-10-16T00:45:03;3.22;;;1.40;;
37655;SDS011;23498;50.958;3.124;2022-10-16T00:47:34;3.38;;;1.50;;
37655;SDS011;23498;50.958;3.124;2022-10-16T00:52:27;3.75;;;1.70;;
37655;SDS011;23498;50.958;3.124;2022-10-16T00:54:53;3.65;;;1.92;;
37655;SDS011;23498;50.958;3.124;2022-10-16T00:57:20;4.15;;;2.30;;
37655;SDS011;23498;50.958;3.124;2022-10-16T00:59:46;4.53;;;2.83;;
37655;SDS011;23498;50.958;3.124;2022-10-16T01:02:13;8.73;;;3.20;;
37655;SDS011;23498;50.958;3.124;2022-10-16T01:04:40;8.27;;;3.13;;
37655;SDS011;23498;50.958;3.124;2022-10-16T01:20:37;3.55;;;1.67;;
37655;SDS011;23498;50.958;3.124;2022-10-16T01:26:04;4.55;;;1.58;;
37655;SDS011;23498;50.958;3.124;2022-10-16T01:28:38;3.70;;;1.60;;
37655;SDS011;23498;50.958;3.124;2022-10-16T01:31:06;2.50;;;1.50;;
37655;SDS011;23498;50.958;3.124;2022-10-16T01:33:44;4.15;;;1.65;;
37655;SDS011;23498;50.958;3.124;2022-10-16T01:36:45;4.35;;;1.65;;
37655;SDS011;23498;50.958;3.124;2022-10-16T01:39:03;3.85;;;1.60;;
37655;SDS011;23498;50.958;3.124;2022-10-16T01:41:34;5.68;;;1.83;;
37655;SDS011;23498;50.958;3.124;2022-10-16T01:44:04;4.28;;;1.75;;
37655;SDS011;23498;50.958;3.124;2022-10-16T01:46:31;4.40;;;1.40;;
37655;SDS011;23498;50.958;3.124;2022-10-16T01:48:57;3.63;;;2.10;;
37655;SDS011;23498;50.958;3.124;2022-10-16T01:51:25;3.97;;;1.80;;
37655;SDS011;23498;50.958;3.124;2022-10-16T01:53:53;4.78;;;1.65;;
37655;SDS011;23498;50.958;3.124;2022-10-16T01:56:20;3.80;;;1.92;;
37655;SDS011;23498;50.958;3.124;2022-10-16T01:58:52;4.70;;;1.80;;
37655;SDS011;23498;50.958;3.124;2022-10-16T02:01:19;4.07;;;1.90;;
37655;SDS011;23498;50.958;3.124;2022-10-16T02:03:46;5.43;;;2.05;;
37655;SDS011;23498;50.958;3.124;2022-10-16T02:06:15;3.47;;;1.70;;
37655;SDS011;23498;50.958;3.124;2022-10-16T02:08:42;4.43;;;1.80;;
37655;SDS011;23498;50.958;3.124;2022-10-16T02:11:09;2.88;;;1.60;;
37655;SDS011;23498;50.958;3.124;2022-10-16T02:13:37;5.70;;;1.92;;
37655;SDS011;23498;50.958;3.124;2022-10-16T02:16:04;3.70;;;1.60;;
37655;SDS011;23498;50.958;3.124;2022-10-16T02:18:30;4.97;;;1.63;;
37655;SDS011;23498;50.958;3.124;2022-10-16T02:23:35;4.15;;;1.50;;
37655;SDS011;23498;50.958;3.124;2022-10-16T02:26:04;3.92;;;1.60;;
37655;SDS011;23498;50.958;3.124;2022-10-16T02:28:35;6.03;;;1.75;;
37655;SDS011;23498;50.958;3.124;2022-10-16T02:31:04;4.28;;;1.65;;
37655;SDS011;23498;50.958;3.124;2022-10-16T02:33:32;3.53;;;1.70;;
37655;SDS011;23498;50.958;3.124;2022-10-16T02:35:59;3.28;;;1.75;;
37655;SDS011;23498;50.958;3.124;2022-10-16T02:38:25;7.03;;;1.70;;
37655;SDS011;23498;50.958;3.124;2022-10-16T02:40:51;5.57;;;1.90;;
37655;SDS011;23498;50.958;3.124;2022-10-16T02:43:18;5.65;;;1.92;;
37655;SDS011;23498;50.958;3.124;2022-10-16T02:45:44;4.10;;;1.90;;
37655;SDS011;23498;50.958;3.124;2022-10-16T02:48:10;4.72;;;1.80;;
37655;SDS011;23498;50.958;3.124;2022-10-16T02:50:36;3.75;;;1.70;;
37655;SDS011;23498;50.958;3.124;2022-10-16T02:53:02;4.03;;;1.60;;
37655;SDS011;23498;50.958;3.124;2022-10-16T02:55:28;4.45;;;1.73;;
37655;SDS011;23498;50.958;3.124;2022-10-16T02:57:54;3.95;;;1.83;;
37655;SDS011;23498;50.958;3.124;2022-10-16T03:00:20;4.13;;;1.48;;
37655;SDS011;23498;50.958;3.124;2022-10-16T03:02:46;3.60;;;1.80;;
37655;SDS011;23498;50.958;3.124;2022-10-16T03:05:12;6.15;;;2.10;;
37655;SDS011;23498;50.958;3.124;2022-10-16T03:07:38;6.85;;;1.65;;
37655;SDS011;23498;50.958;3.124;2022-10-16T03:10:04;6.05;;;2.28;;
37655;SDS011;23498;50.958;3.124;2022-10-16T03:12:30;5.78;;;1.70;;
37655;SDS011;23498;50.958;3.124;2022-10-16T03:14:57;5.32;;;2.00;;
37655;SDS011;23498;50.958;3.124;2022-10-16T03:17:23;4.88;;;2.22;;
37655;SDS011;23498;50.958;3.124;2022-10-16T03:19:49;5.38;;;2.20;;
37655;SDS011;23498;50.958;3.124;2022-10-16T03:22:15;5.05;;;1.90;;
37655;SDS011;23498;50.958;3.124;2022-10-16T03:24:41;2.97;;;1.70;;
37655;SDS011;23498;50.958;3.124;2022-10-16T03:27:07;3.95;;;1.80;;
37655;SDS011;23498;50.958;3.124;2022-10-16T03:29:33;5.90;;;1.70;;
37655;SDS011;23498;50.958;3.124;2022-10-16T03:31:59;5.30;;;2.00;;
37655;SDS011;23498;50.958;3.124;2022-10-16T03:34:26;3.85;;;1.77;;
37655;SDS011;23498;50.958;3.124;2022-10-16T03:36:52;7.20;;;2.05;;
37655;SDS011;23498;50.958;3.124;2022-10-16T03:39:19;4.88;;;2.20;;
37655;SDS011;23498;50.958;3.124;2022-10-16T03:41:45;5.10;;;2.00;;
37655;SDS011;23498;50.958;3.124;2022-10-16T03:44:11;4.13;;;1.90;;
37655;SDS011;23498;50.958;3.124;2022-10-16T03:46:37;3.53;;;1.80;;
37655;SDS011;23498;50.958;3.124;2022-10-16T03:49:03;4.60;;;2.00;;
37655;SDS011;23498;50.958;3.124;2022-10-16T03:51:29;4.07;;;2.08;;
37655;SDS011;23498;50.958;3.124;2022-10-16T03:53:55;4.28;;;1.95;;
37655;SDS011;23498;50.958;3.124;2022-10-16T03:56:21;6.35;;;2.28;;
37655;SDS011;23498;50.958;3.124;2022-10-16T03:58:47;7.93;;;2.78;;
37655;SDS011;23498;50.958;3.124;2022-10-16T04:01:13;7.18;;;2.30;;
37655;SDS011;23498;50.958;3.124;2022-10-16T04:03:39;4.85;;;2.10;;
37655;SDS011;23498;50.958;3.124;2022-10-16T04:06:05;5.60;;;2.00;;
37655;SDS011;23498;50.958;3.124;2022-10-16T04:08:31;5.40;;;2.25;;
37655;SDS011;23498;50.958;3.124;2022-10-16T04:10:59;3.10;;;2.00;;
37655;SDS011;23498;50.958;3.124;2022-10-16T04:13:26;4.72;;;2.15;;
37655;SDS011;23498;50.958;3.124;2022-10-16T04:15:52;3.92;;;1.70;;
37655;SDS011;23498;50.958;3.124;2022-10-16T04:18:18;4.22;;;1.75;;
37655;SDS011;23498;50.958;3.124;2022-10-16T04:20:44;4.82;;;1.98;;
37655;SDS011;23498;50.958;3.124;2022-10-16T04:23:10;4.65;;;1.92;;
37655;SDS011;23498;50.958;3.124;2022-10-16T04:25:36;4.70;;;2.17;;
37655;SDS011;23498;50.958;3.124;2022-10-16T04:28:02;5.78;;;2.10;;
37655;SDS011;23498;50.958;3.124;2022-10-16T04:30:28;4.20;;;2.00;;
37655;SDS011;23498;50.958;3.124;2022-10-16T04:32:54;4.63;;;2.00;;
37655;SDS011;23498;50.958;3.124;2022-10-16T04:35:20;4.82;;;1.92;;
37655;SDS011;23498;50.958;3.124;2022-10-16T04:37:47;4.85;;;2.03;;
37655;SDS011;23498;50.958;3.124;2022-10-16T04:40:13;5.13;;;2.20;;
37655;SDS011;23498;50.958;3.124;2022-10-16T04:42:39;3.92;;;1.95;;
37655;SDS011;23498;50.958;3.124;2022-10-16T04:45:05;4.90;;;2.08;;
37655;SDS011;23498;50.958;3.124;2022-10-16T04:47:33;5.25;;;2.17;;
37655;SDS011;23498;50.958;3.124;2022-10-16T04:49:59;4.93;;;1.95;;
37655;SDS011;23498;50.958;3.124;2022-10-16T04:52:26;5.88;;;2.10;;
37655;SDS011;23498;50.958;3.124;2022-10-16T04:54:52;8.23;;;2.33;;
37655;SDS011;23498;50.958;3.124;2022-10-16T04:57:19;8.23;;;2.00;;
37655;SDS011;23498;50.958;3.124;2022-10-16T04:59:45;4.57;;;2.00;;
37655;SDS011;23498;50.958;3.124;2022-10-16T05:02:11;6.10;;;1.90;;
37655;SDS011;23498;50.958;3.124;2022-10-16T05:04:37;5.88;;;2.00;;
37655;SDS011;23498;50.958;3.124;2022-10-16T05:07:03;4.25;;;1.90;;
37655;SDS011;23498;50.958;3.124;2022-10-16T05:09:29;5.90;;;1.98;;
37655;SDS011;23498;50.958;3.124;2022-10-16T05:11:55;5.32;;;1.90;;
37655;SDS011;23498;50.958;3.124;2022-10-16T05:14:21;6.75;;;2.28;;
37655;SDS011;23498;50.958;3.124;2022-10-16T05:16:47;4.47;;;2.00;;
37655;SDS011;23498;50.958;3.124;2022-10-16T05:19:13;5.47;;;2.30;;
37655;SDS011;23498;50.958;3.124;2022-10-16T05:21:39;6.07;;;2.10;;
37655;SDS011;23498;50.958;3.124;2022-10-16T05:24:05;6.30;;;2.38;;
37655;SDS011;23498;50.958;3.124;2022-10-16T05:26:31;5.97;;;1.92;;
37655;SDS011;23498;50.958;3.124;2022-10-16T05:28:57;4.85;;;2.25;;
37655;SDS011;23498;50.958;3.124;2022-10-16T05:31:23;4.28;;;2.10;;
37655;SDS011;23498;50.958;3.124;2022-10-16T05:33:49;5.20;;;2.10;;
37655;SDS011;23498;50.958;3.124;2022-10-16T05:36:15;5.68;;;1.60;;
37655;SDS011;23498;50.958;3.124;2022-10-16T05:38:43;4.55;;;1.80;;
37655;SDS011;23498;50.958;3.124;2022-10-16T05:41:09;5.38;;;1.83;;
37655;SDS011;23498;50.958;3.124;2022-10-16T05:43:35;3.45;;;1.60;;
37655;SDS011;23498;50.958;3.124;2022-10-16T05:46:04;6.20;;;1.77;;
37655;SDS011;23498;50.958;3.124;2022-10-16T05:48:31;5.18;;;1.58;;
37655;SDS011;23498;50.958;3.124;2022-10-16T05:51:01;5.53;;;1.70;;
37655;SDS011;23498;50.958;3.124;2022-10-16T05:53:28;5.90;;;1.80;;
37655;SDS011;23498;50.958;3.124;2022-10-16T05:55:54;3.88;;;1.75;;
37655;SDS011;23498;50.958;3.124;2022-10-16T05:58:21;5.70;;;1.70;;
37655;SDS011;23498;50.958;3.124;2022-10-16T06:00:57;5.78;;;1.80;;
37655;SDS011;23498;50.958;3.124;2022-10-16T06:03:24;5.88;;;2.05;;
37655;SDS011;23498;50.958;3.124;2022-10-16T06:05:50;7.53;;;1.75;;
37655;SDS011;23498;50.958;3.124;2022-10-16T06:08:17;3.78;;;1.70;;
37655;SDS011;23498;50.958;3.124;2022-10-16T06:10:43;5.53;;;2.00;;
37655;SDS011;23498;50.958;3.124;2022-10-16T06:13:10;7.07;;;2.00;;
37655;SDS011;23498;50.958;3.124;2022-10-16T06:15:36;7.63;;;2.00;;
37655;SDS011;23498;50.958;3.124;2022-10-16T06:18:03;3.85;;;1.98;;
37655;SDS011;23498;50.958;3.124;2022-10-16T06:20:29;5.82;;;1.90;;
37655;SDS011;23498;50.958;3.124;2022-10-16T06:22:56;10.27;;;2.30;;
37655;SDS011;23498;50.958;3.124;2022-10-16T06:25:22;7.85;;;2.20;;
37655;SDS011;23498;50.958;3.124;2022-10-16T06:27:48;7.43;;;1.92;;
37655;SDS011;23498;50.958;3.124;2022-10-16T06:30:14;5.60;;;1.92;;
37655;SDS011;23498;50.958;3.124;2022-10-16T06:32:40;5.40;;;1.95;;
37655;SDS011;23498;50.958;3.124;2022-10-16T06:35:06;5.78;;;1.90;;
37655;SDS011;23498;50.958;3.124;2022-10-16T06:37:32;5.75;;;1.88;;
37655;SDS011;23498;50.958;3.124;2022-10-16T06:39:58;6.07;;;2.00;;
37655;SDS011;23498;50.958;3.124;2022-10-16T06:42:25;5.63;;;1.95;;
37655;SDS011;23498;50.958;3.124;2022-10-16T06:44:51;5.00;;;2.15;;
37655;SDS011;23498;50.958;3.124;2022-10-16T06:47:17;3.30;;;1.80;;
37655;SDS011;23498;50.958;3.124;2022-10-16T06:49:43;5.93;;;2.00;;
37655;SDS011;23498;50.958;3.124;2022-10-16T06:52:09;7.90;;;2.22;;
37655;SDS011;23498;50.958;3.124;2022-10-16T06:54:35;4.15;;;2.15;;
37655;SDS011;23498;50.958;3.124;2022-10-16T06:57:01;5.65;;;1.92;;
37655;SDS011;23498;50.958;3.124;2022-10-16T06:59:27;4.53;;;1.98;;
37655;SDS011;23498;50.958;3.124;2022-10-16T07:01:53;4.57;;;2.15;;
37655;SDS011;23498;50.958;3.124;2022-10-16T07:04:19;4.03;;;1.90;;
37655;SDS011;23498;50.958;3.124;2022-10-16T07:06:45;4.70;;;1.88;;
37655;SDS011;23498;50.958;3.124;2022-10-16T07:09:11;6.55;;;2.17;;
37655;SDS011;23498;50.958;3.124;2022-10-16T07:11:38;5.35;;;2.35;;
37655;SDS011;23498;50.958;3.124;2022-10-16T07:14:04;6.45;;;2.08;;
37655;SDS011;23498;50.958;3.124;2022-10-16T07:16:31;5.68;;;2.28;;
37655;SDS011;23498;50.958;3.124;2022-10-16T07:18:58;4.72;;;1.88;;
37655;SDS011;23498;50.958;3.124;2022-10-16T07:21:27;7.43;;;2.35;;
37655;SDS011;23498;50.958;3.124;2022-10-16T07:23:57;3.92;;;2.17;;
37655;SDS011;23498;50.958;3.124;2022-10-16T07:26:33;5.55;;;2.30;;
37655;SDS011;23498;50.958;3.124;2022-10-16T07:29:12;8.60;;;2.33;;
37655;SDS011;23498;50.958;3.124;2022-10-16T07:31:41;6.07;;;1.73;;
37655;SDS011;23498;50.958;3.124;2022-10-16T07:34:07;5.90;;;1.92;;
37655;SDS011;23498;50.958;3.124;2022-10-16T07:36:33;6.22;;;2.00;;
37655;SDS011;23498;50.958;3.124;2022-10-16T07:38:59;6.78;;;2.00;;
37655;SDS011;23498;50.958;3.124;2022-10-16T07:41:25;11.52;;;3.22;;
37655;SDS011;23498;50.958;3.124;2022-10-16T07:43:52;6.30;;;2.25;;
37655;SDS011;23498;50.958;3.124;2022-10-16T07:46:19;4.15;;;1.80;;
37655;SDS011;23498;50.958;3.124;2022-10-16T07:48:46;5.25;;;1.90;;
37655;SDS011;23498;50.958;3.124;2022-10-16T07:51:13;8.07;;;2.30;;
37655;SDS011;23498;50.958;3.124;2022-10-16T07:53:39;6.85;;;1.80;;
37655;SDS011;23498;50.958;3.124;2022-10-16T07:56:06;6.28;;;2.08;;
37655;SDS011;23498;50.958;3.124;2022-10-16T07:58:33;8.20;;;1.92;;
37655;SDS011;23498;50.958;3.124;2022-10-16T08:01:02;8.55;;;1.80;;
37655;SDS011;23498;50.958;3.124;2022-10-16T08:03:29;6.35;;;1.80;;
37655;SDS011;23498;50.958;3.124;2022-10-16T08:05:56;7.63;;;2.10;;
37655;SDS011;23498;50.958;3.124;2022-10-16T08:08:22;8.30;;;1.90;;
37655;SDS011;23498;50.958;3.124;2022-10-16T08:10:48;5.65;;;1.92;;
37655;SDS011;23498;50.958;3.124;2022-10-16T08:13:14;4.40;;;1.85;;
37655;SDS011;23498;50.958;3.124;2022-10-16T08:15:43;5.30;;;1.83;;
37655;SDS011;23498;50.958;3.124;2022-10-16T08:18:10;4.93;;;1.70;;
37655;SDS011;23498;50.958;3.124;2022-10-16T08:20:36;6.90;;;2.00;;
37655;SDS011;23498;50.958;3.124;2022-10-16T08:23:02;5.75;;;2.15;;
37655;SDS011;23498;50.958;3.124;2022-10-16T08:25:29;5.75;;;2.05;;
37655;SDS011;23498;50.958;3.124;2022-10-16T08:27:55;6.32;;;1.92;;
37655;SDS011;23498;50.958;3.124;2022-10-16T08:30:22;7.43;;;1.98;;
37655;SDS011;23498;50.958;3.124;2022-10-16T08:32:48;4.68;;;1.75;;
37655;SDS011;23498;50.958;3.124;2022-10-16T08:35:14;6.25;;;1.80;;
37655;SDS011;23498;50.958;3.124;2022-10-16T08:37:40;7.05;;;2.08;;
37655;SDS011;23498;50.958;3.124;2022-10-16T08:40:07;6.00;;;1.58;;
37655;SDS011;23498;50.958;3.124;2022-10-16T08:42:44;7.15;;;1.75;;
37655;SDS011;23498;50.958;3.124;2022-10-16T08:48:20;8.95;;;1.88;;
37655;SDS011;23498;50.958;3.124;2022-10-16T08:50:49;7.45;;;1.80;;
37655;SDS011;23498;50.958;3.124;2022-10-16T08:53:21;8.45;;;2.20;;
37655;SDS011;23498;50.958;3.124;2022-10-16T08:56:02;5.65;;;1.52;;
37655;SDS011;23498;50.958;3.124;2022-10-16T08:58:29;8.27;;;1.90;;
37655;SDS011;23498;50.958;3.124;2022-10-16T09:00:59;7.15;;;1.67;;
37655;SDS011;23498;50.958;3.124;2022-10-16T09:03:42;6.43;;;1.88;;
37655;SDS011;23498;50.958;3.124;2022-10-16T09:08:44;5.57;;;2.17;;
37655;SDS011;23498;50.958;3.124;2022-10-16T09:13:56;7.25;;;1.67;;
37655;SDS011;23498;50.958;3.124;2022-10-16T09:18:53;7.38;;;1.80;;
37655;SDS011;23498;50.958;3.124;2022-10-16T09:21:21;6.70;;;1.80;;
37655;SDS011;23498;50.958;3.124;2022-10-16T09:23:49;8.10;;;2.00;;
37655;SDS011;23498;50.958;3.124;2022-10-16T09:26:16;7.95;;;1.52;;
37655;SDS011;23498;50.958;3.124;2022-10-16T09:28:42;6.82;;;2.40;;
37655;SDS011;23498;50.958;3.124;2022-10-16T09:31:19;9.73;;;1.90;;
37655;SDS011;23498;50.958;3.124;2022-10-16T09:33:46;7.68;;;1.67;;
37655;SDS011;23498;50.958;3.124;2022-10-16T09:36:13;8.07;;;1.90;;
37655;SDS011;23498;50.958;3.124;2022-10-16T09:38:39;11.48;;;2.00;;
37655;SDS011;23498;50.958;3.124;2022-10-16T09:41:21;6.90;;;1.73;;
37655;SDS011;23498;50.958;3.124;2022-10-16T09:43:59;6.93;;;1.60;;
37655;SDS011;23498;50.958;3.124;2022-10-16T09:46:30;9.50;;;1.92;;
37655;SDS011;23498;50.958;3.124;2022-10-16T09:48:58;7.65;;;1.80;;
37655;SDS011;23498;50.958;3.124;2022-10-16T09:51:29;8.32;;;1.80;;
37655;SDS011;23498;50.958;3.124;2022-10-16T09:53:59;10.07;;;2.03;;
37655;SDS011;23498;50.958;3.124;2022-10-16T09:56:41;7.70;;;2.00;;
37655;SDS011;23498;50.958;3.124;2022-10-16T09:59:19;11.40;;;2.10;;
37655;SDS011;23498;50.958;3.124;2022-10-16T10:01:49;9.52;;;1.85;;
37655;SDS011;23498;50.958;3.124;2022-10-16T10:04:16;11.75;;;2.05;;
37655;SDS011;23498;50.958;3.124;2022-10-16T10:06:43;10.65;;;2.10;;
37655;SDS011;23498;50.958;3.124;2022-10-16T10:11:55;9.02;;;1.80;;
37655;SDS011;23498;50.958;3.124;2022-10-16T10:14:23;4.82;;;1.55;;
37655;SDS011;23498;50.958;3.124;2022-10-16T10:16:50;6.85;;;1.90;;
37655;SDS011;23498;50.958;3.124;2022-10-16T10:19:19;9.65;;;1.70;;
37655;SDS011;23498;50.958;3.124;2022-10-16T10:21:46;7.13;;;1.83;;
37655;SDS011;23498;50.958;3.124;2022-10-16T10:24:12;5.93;;;1.60;;
37655;SDS011;23498;50.958;3.124;2022-10-16T10:26:39;12.18;;;1.90;;
37655;SDS011;23498;50.958;3.124;2022-10-16T10:29:23;6.32;;;1.83;;
37655;SDS011;23498;50.958;3.124;2022-10-16T10:34:43;6.75;;;1.70;;
37655;SDS011;23498;50.958;3.124;2022-10-16T10:40:09;9.52;;;1.77;;
37655;SDS011;23498;50.958;3.124;2022-10-16T10:50:17;5.10;;;1.52;;
37655;SDS011;23498;50.958;3.124;2022-10-16T10:53:05;5.13;;;1.35;;
37655;SDS011;23498;50.958;3.124;2022-10-16T11:05:58;5.60;;;1.25;;
37655;SDS011;23498;50.958;3.124;2022-10-16T11:08:30;6.75;;;1.25;;
37655;SDS011;23498;50.958;3.124;2022-10-16T11:10:58;6.32;;;1.45;;
37655;SDS011;23498;50.958;3.124;2022-10-16T11:13:39;8.65;;;1.63;;
37655;SDS011;23498;50.958;3.124;2022-10-16T11:16:13;8.32;;;1.50;;
37655;SDS011;23498;50.958;3.124;2022-10-16T11:21:26;8.70;;;1.40;;
37655;SDS011;23498;50.958;3.124;2022-10-16T11:23:57;6.07;;;1.20;;
37655;SDS011;23498;50.958;3.124;2022-10-16T11:26:30;5.35;;;1.35;;
37655;SDS011;23498;50.958;3.124;2022-10-16T11:28:58;6.07;;;1.48;;
37655;SDS011;23498;50.958;3.124;2022-10-16T11:31:36;8.32;;;1.40;;
37655;SDS011;23498;50.958;3.124;2022-10-16T11:41:36;7.90;;;1.52;;
37655;SDS011;23498;50.958;3.124;2022-10-16T11:46:34;5.85;;;1.50;;
37655;SDS011;23498;50.958;3.124;2022-10-16T11:49:14;8.05;;;1.65;;
37655;SDS011;23498;50.958;3.124;2022-10-16T11:51:42;7.15;;;1.38;;
37655;SDS011;23498;50.958;3.124;2022-10-16T11:54:20;5.78;;;1.40;;
37655;SDS011;23498;50.958;3.124;2022-10-16T11:57:05;6.57;;;1.40;;
37655;SDS011;23498;50.958;3.124;2022-10-16T11:59:46;8.70;;;2.00;;
37655;SDS011;23498;50.958;3.124;2022-10-16T12:04:55;9.55;;;1.60;;
37655;SDS011;23498;50.958;3.124;2022-10-16T12:07:27;7.40;;;1.45;;
37655;SDS011;23498;50.958;3.124;2022-10-16T12:09:58;6.45;;;1.42;;
37655;SDS011;23498;50.958;3.124;2022-10-16T12:15:03;8.02;;;1.80;;
37655;SDS011;23498;50.958;3.124;2022-10-16T12:17:36;7.53;;;2.15;;
37655;SDS011;23498;50.958;3.124;2022-10-16T12:22:51;6.03;;;1.73;;
37655;SDS011;23498;50.958;3.124;2022-10-16T12:25:26;6.90;;;1.60;;
37655;SDS011;23498;50.958;3.124;2022-10-16T12:28:38;5.13;;;1.23;;
37655;SDS011;23498;50.958;3.124;2022-10-16T12:30:39;6.97;;;1.48;;
37655;SDS011;23498;50.958;3.124;2022-10-16T12:33:06;6.28;;;1.20;;
37655;SDS011;23498;50.958;3.124;2022-10-16T12:35:45;4.93;;;1.13;;
37655;SDS011;23498;50.958;3.124;2022-10-16T12:38:18;4.85;;;1.30;;
37655;SDS011;23498;50.958;3.124;2022-10-16T12:40:46;8.98;;;2.00;;
37655;SDS011;23498;50.958;3.124;2022-10-16T12:43:23;7.35;;;1.15;;
37655;SDS011;23498;50.958;3.124;2022-10-16T12:48:38;7.40;;;1.17;;
37655;SDS011;23498;50.958;3.124;2022-10-16T12:56:27;6.60;;;1.33;;
37655;SDS011;23498;50.958;3.124;2022-10-16T13:06:54;4.53;;;1.42;;
37655;SDS011;23498;50.958;3.124;2022-10-16T13:09:30;6.43;;;1.45;;
37655;SDS011;23498;50.958;3.124;2022-10-16T13:12:00;5.13;;;1.90;;
37655;SDS011;23498;50.958;3.124;2022-10-16T13:17:14;5.40;;;1.95;;
37655;SDS011;23498;50.958;3.124;2022-10-16T13:27:29;4.35;;;1.65;;
37655;SDS011;23498;50.958;3.124;2022-10-16T13:30:09;5.43;;;1.60;;
37655;SDS011;23498;50.958;3.124;2022-10-16T13:32:36;4.78;;;1.20;;
37655;SDS011;23498;50.958;3.124;2022-10-16T13:35:02;3.78;;;1.10;;
37655;SDS011;23498;50.958;3.124;2022-10-16T13:37:29;5.90;;;1.40;;
37655;SDS011;23498;50.958;3.124;2022-10-16T13:40:12;3.75;;;1.30;;
37655;SDS011;23498;50.958;3.124;2022-10-16T13:42:45;3.60;;;1.13;;
37655;SDS011;23498;50.958;3.124;2022-10-16T13:45:21;3.83;;;1.10;;
37655;SDS011;23498;50.958;3.124;2022-10-16T13:47:47;3.67;;;1.17;;
37655;SDS011;23498;50.958;3.124;2022-10-16T13:50:17;3.78;;;1.20;;
37655;SDS011;23498;50.958;3.124;2022-10-16T13:52:44;4.97;;;1.20;;
37655;SDS011;23498;50.958;3.124;2022-10-16T13:55:17;3.13;;;1.10;;
37655;SDS011;23498;50.958;3.124;2022-10-16T13:57:44;2.83;;;0.95;;
37655;SDS011;23498;50.958;3.124;2022-10-16T14:00:26;3.45;;;0.90;;
37655;SDS011;23498;50.958;3.124;2022-10-16T14:02:58;2.30;;;0.70;;
37655;SDS011;23498;50.958;3.124;2022-10-16T14:05:26;3.50;;;1.00;;
37655;SDS011;23498;50.958;3.124;2022-10-16T14:07:52;3.10;;;0.90;;
37655;SDS011;23498;50.958;3.124;2022-10-16T14:10:24;4.10;;;0.80;;
37655;SDS011;23498;50.958;3.124;2022-10-16T14:12:55;2.92;;;0.90;;
37655;SDS011;23498;50.958;3.124;2022-10-16T14:15:21;2.83;;;1.02;;
37655;SDS011;23498;50.958;3.124;2022-10-16T14:17:49;3.20;;;0.95;;
37655;SDS011;23498;50.958;3.124;2022-10-16T14:20:15;4.97;;;1.30;;
37655;SDS011;23498;50.958;3.124;2022-10-16T14:22:42;3.97;;;1.30;;
37655;SDS011;23498;50.958;3.124;2022-10-16T14:28:00;5.72;;;1.30;;
37655;SDS011;23498;50.958;3.124;2022-10-16T14:30:27;5.00;;;1.23;;
37655;SDS011;23498;50.958;3.124;2022-10-16T14:33:03;3.85;;;1.13;;
37655;SDS011;23498;50.958;3.124;2022-10-16T14:35:31;3.67;;;0.90;;
37655;SDS011;23498;50.958;3.124;2022-10-16T14:37:58;2.70;;;0.85;;
37655;SDS011;23498;50.958;3.124;2022-10-16T14:40:26;5.22;;;1.00;;
37655;SDS011;23498;50.958;3.124;2022-10-16T14:42:52;3.50;;;1.17;;
37655;SDS011;23498;50.958;3.124;2022-10-16T14:45:19;4.10;;;1.33;;
37655;SDS011;23498;50.958;3.124;2022-10-16T14:47:50;4.18;;;1.10;;
37655;SDS011;23498;50.958;3.124;2022-10-16T14:50:16;6.75;;;1.40;;
37655;SDS011;23498;50.958;3.124;2022-10-16T14:52:42;2.90;;;1.02;;
37655;SDS011;23498;50.958;3.124;2022-10-16T14:55:09;2.97;;;1.00;;
37655;SDS011;23498;50.958;3.124;2022-10-16T14:57:35;4.80;;;1.02;;
37655;SDS011;23498;50.958;3.124;2022-10-16T15:00:02;2.75;;;1.10;;
37655;SDS011;23498;50.958;3.124;2022-10-16T15:02:33;4.25;;;1.23;;
37655;SDS011;23498;50.958;3.124;2022-10-16T15:05:19;2.55;;;1.20;;
37655;SDS011;23498;50.958;3.124;2022-10-16T15:07:45;5.20;;;1.50;;
37655;SDS011;23498;50.958;3.124;2022-10-16T15:10:12;3.35;;;1.20;;
37655;SDS011;23498;50.958;3.124;2022-10-16T15:12:39;2.60;;;0.80;;
37655;SDS011;23498;50.958;3.124;2022-10-16T15:17:37;3.03;;;1.10;;
37655;SDS011;23498;50.958;3.124;2022-10-16T15:20:03;6.03;;;1.17;;
37655;SDS011;23498;50.958;3.124;2022-10-16T15:22:29;3.85;;;1.27;;
37655;SDS011;23498;50.958;3.124;2022-10-16T15:24:55;3.75;;;1.23;;
37655;SDS011;23498;50.958;3.124;2022-10-16T15:27:21;6.63;;;1.23;;
37655;SDS011;23498;50.958;3.124;2022-10-16T15:29:47;3.83;;;1.40;;
37655;SDS011;23498;50.958;3.124;2022-10-16T15:32:13;5.53;;;2.20;;
37655;SDS011;23498;50.958;3.124;2022-10-16T15:34:39;5.20;;;1.63;;
37655;SDS011;23498;50.958;3.124;2022-10-16T15:37:05;4.47;;;1.95;;
37655;SDS011;23498;50.958;3.124;2022-10-16T15:39:31;7.28;;;1.80;;
37655;SDS011;23498;50.958;3.124;2022-10-16T15:41:57;5.30;;;1.92;;
37655;SDS011;23498;50.958;3.124;2022-10-16T15:44:23;6.50;;;2.13;;
37655;SDS011;23498;50.958;3.124;2022-10-16T15:46:56;5.72;;;2.08;;
37655;SDS011;23498;50.958;3.124;2022-10-16T15:49:22;7.60;;;2.50;;
37655;SDS011;23498;50.958;3.124;2022-10-16T15:51:48;9.73;;;3.28;;
37655;SDS011;23498;50.958;3.124;2022-10-16T15:54:15;7.78;;;2.42;;
37655;SDS011;23498;50.958;3.124;2022-10-16T15:56:40;5.90;;;2.40;;
37655;SDS011;23498;50.958;3.124;2022-10-16T15:59:07;6.70;;;2.70;;
37655;SDS011;23498;50.958;3.124;2022-10-16T16:01:33;5.03;;;3.00;;
37655;SDS011;23498;50.958;3.124;2022-10-16T16:03:59;7.70;;;3.60;;
37655;SDS011;23498;50.958;3.124;2022-10-16T16:06:25;6.32;;;2.90;;
37655;SDS011;23498;50.958;3.124;2022-10-16T16:08:51;5.22;;;2.55;;
37655;SDS011;23498;50.958;3.124;2022-10-16T16:11:18;7.30;;;2.63;;
37655;SDS011;23498;50.958;3.124;2022-10-16T16:13:45;7.82;;;2.60;;
37655;SDS011;23498;50.958;3.124;2022-10-16T16:16:12;4.95;;;2.55;;
37655;SDS011;23498;50.958;3.124;2022-10-16T16:18:38;6.53;;;2.85;;
37655;SDS011;23498;50.958;3.124;2022-10-16T16:21:05;6.07;;;3.00;;
37655;SDS011;23498;50.958;3.124;2022-10-16T16:23:31;5.72;;;3.20;;
37655;SDS011;23498;50.958;3.124;2022-10-16T16:26:04;6.18;;;3.28;;
37655;SDS011;23498;50.958;3.124;2022-10-16T16:28:31;8.27;;;3.70;;
37655;SDS011;23498;50.958;3.124;2022-10-16T16:30:57;8.60;;;4.43;;
37655;SDS011;23498;50.958;3.124;2022-10-16T16:33:23;9.77;;;4.70;;
37655;SDS011;23498;50.958;3.124;2022-10-16T16:35:49;9.55;;;4.57;;
37655;SDS011;23498;50.958;3.124;2022-10-16T16:38:15;9.32;;;4.68;;
37655;SDS011;23498;50.958;3.124;2022-10-16T16:40:41;9.70;;;4.10;;
37655;SDS011;23498;50.958;3.124;2022-10-16T16:43:07;10.57;;;5.55;;
37655;SDS011;23498;50.958;3.124;2022-10-16T16:45:36;11.63;;;7.15;;